createdAt,value
2024-05-09T00:04:54.154Z,101201.47
2024-05-09T00:09:57.126Z,101188.81
2024-05-09T00:15:00.125Z,101198.78
2024-05-09T00:20:10.914Z,101198.38
2024-05-09T00:25:17.386Z,101195.84
2024-05-09T00:30:28.010Z,101196.34
2024-05-09T00:35:36.713Z,101207.03
2024-05-09T00:40:42.343Z,101216.97
2024-05-09T00:45:47.550Z,101222.72
2024-05-09T00:50:51.637Z,101220.75
2024-05-09T00:55:55.475Z,101219.50
2024-05-09T01:01:01.641Z,101230.63
2024-05-09T01:06:06.543Z,101241.16
2024-05-09T01:11:09.955Z,101245.66
2024-05-09T01:16:14.416Z,101250.13
2024-05-09T01:21:17.842Z,101254.59
2024-05-09T01:26:21.611Z,101250.66
2024-05-09T01:31:26.582Z,101256.28
2024-05-09T01:36:30.323Z,101254.78
2024-05-09T01:41:33.550Z,101265.56
2024-05-09T01:46:36.569Z,101255.72
2024-05-09T01:51:40.530Z,101250.59
2024-05-09T01:56:43.731Z,101251.34
2024-05-09T02:01:56.602Z,101259.19
2024-05-09T02:07:01.726Z,101260.13
2024-05-09T02:12:05.104Z,101270.69
2024-05-09T02:17:09.456Z,101259.69
2024-05-09T02:22:13.790Z,101258.31
2024-05-09T02:27:16.770Z,101245.72
2024-05-09T02:32:20.938Z,101249.28
2024-05-09T02:37:24.566Z,101233.47
2024-05-09T02:42:27.477Z,101247.34
2024-05-09T02:47:30.657Z,101231.41
2024-05-09T02:52:34.548Z,101228.19
2024-05-09T02:57:37.528Z,101220.78
2024-05-09T03:02:45.270Z,101224.84
2024-05-09T03:07:49.337Z,101232.66
2024-05-09T03:12:53.434Z,101234.41
2024-05-09T03:17:56.544Z,101236.59
2024-05-09T03:23:01.889Z,101236.78
2024-05-09T03:28:05.333Z,101230.94
2024-05-09T03:33:20.450Z,101230.34
2024-05-09T03:38:24.370Z,101223.66
2024-05-09T03:43:27.816Z,101220.38
2024-05-09T03:48:35.690Z,101219.00
2024-05-09T03:53:40.959Z,101219.38
2024-05-09T03:58:43.965Z,101211.75
2024-05-09T04:03:47.712Z,101213.97
2024-05-09T04:08:52.815Z,101212.38
2024-05-09T04:13:56.302Z,101213.28
2024-05-09T04:18:59.843Z,101210.41
2024-05-09T04:24:04.603Z,101215.66
2024-05-09T04:29:08.403Z,101212.34
2024-05-09T04:34:12.404Z,101212.25
2024-05-09T04:39:15.883Z,101204.03
2024-05-09T04:44:18.852Z,101203.50
2024-05-09T04:49:22.256Z,101202.81
2024-05-09T04:54:33.840Z,101196.13
2024-05-09T04:59:39.721Z,101194.75
2024-05-09T05:04:43.871Z,101187.06
2024-05-09T05:09:46.974Z,101183.72
2024-05-09T05:14:50.038Z,101177.91
2024-05-09T05:19:55.688Z,101172.00
2024-05-09T05:24:58.870Z,101173.06
2024-05-09T05:30:01.824Z,101170.75
2024-05-09T05:35:07.452Z,101161.44
2024-05-09T05:40:14.629Z,101159.75
2024-05-09T05:45:21.055Z,101163.72
2024-05-09T05:50:32.431Z,101159.13
2024-05-09T05:55:42.336Z,101137.72
2024-05-09T06:00:45.622Z,101134.75
2024-05-09T06:05:48.852Z,101134.53
2024-05-09T06:10:52.639Z,101117.25
2024-05-09T06:15:55.591Z,101107.56
2024-05-09T06:20:59.557Z,101104.69
2024-05-09T06:26:03.146Z,101098.41
2024-05-09T06:31:07.127Z,101096.56
2024-05-09T06:36:10.455Z,101092.31
2024-05-09T06:41:13.552Z,101073.63
2024-05-09T06:46:16.399Z,101055.53
2024-05-09T06:51:19.487Z,101061.72
2024-05-09T06:56:23.940Z,101055.84
2024-05-09T07:01:26.950Z,101055.09
2024-05-09T07:06:30.467Z,101049.34
2024-05-09T07:11:34.183Z,101042.63
2024-05-09T07:16:37.166Z,101041.81
2024-05-09T07:21:40.534Z,101029.03
2024-05-09T07:26:43.633Z,101019.78
2024-05-09T07:31:46.640Z,101020.72
2024-05-09T07:36:50.153Z,101007.94
2024-05-09T07:41:53.121Z,100995.97
2024-05-09T07:48:14.001Z,100982.53
2024-05-09T07:57:25.276Z,100960.47
2024-05-09T08:02:29.245Z,100948.59
2024-05-09T08:07:35.630Z,100945.16
2024-05-09T08:12:38.662Z,100933.09
2024-05-09T08:17:41.625Z,100946.84
2024-05-09T08:22:45.041Z,100947.75
2024-05-09T08:27:48.479Z,100936.47
2024-05-09T08:32:51.901Z,100936.44
2024-05-09T08:37:55.494Z,100922.50
2024-05-09T08:42:58.716Z,100920.66
2024-05-09T08:48:06.438Z,100897.25
2024-05-09T08:53:10.583Z,100896.22
2024-05-09T08:58:16.793Z,100883.19
2024-05-09T09:03:23.244Z,100872.69
2024-05-09T09:08:27.654Z,100870.72
2024-05-09T09:13:30.857Z,100880.00
2024-05-09T09:18:34.826Z,100868.03
2024-05-09T09:23:40.338Z,100864.03
2024-05-09T09:28:45.298Z,100876.38
2024-05-09T09:33:48.919Z,100858.03
2024-05-09T09:38:52.879Z,100870.78
2024-05-09T09:43:57.817Z,100872.47
2024-05-09T09:49:01.065Z,100858.91
2024-05-09T09:54:05.574Z,100871.22
2024-05-09T09:59:09.010Z,100871.38
2024-05-09T10:04:13.482Z,100857.56
2024-05-09T10:09:18.710Z,100840.28
2024-05-09T10:14:22.466Z,100828.22
2024-05-09T10:19:28.861Z,100823.69
2024-05-09T10:24:51.987Z,100808.22
2024-05-09T10:29:59.841Z,100814.38
2024-05-09T10:35:07.648Z,100821.28
2024-05-09T10:40:23.353Z,100812.72
2024-05-09T10:45:32.375Z,100809.25
2024-05-09T10:50:36.145Z,100803.22
2024-05-09T10:55:39.844Z,100812.78
2024-05-09T11:00:43.174Z,100799.91
2024-05-09T11:05:48.394Z,100789.56
2024-05-09T11:10:54.033Z,100783.56
2024-05-09T11:15:57.906Z,100790.47
2024-05-09T11:21:01.532Z,100789.66
2024-05-09T11:26:04.798Z,100781.09
2024-05-09T11:31:11.157Z,100780.94
2024-05-09T11:36:15.053Z,100778.78
2024-05-09T11:41:21.361Z,100756.88
2024-05-09T11:46:25.375Z,100754.28
2024-05-09T11:51:29.828Z,100754.38
2024-05-09T11:56:33.855Z,100747.56
2024-05-09T12:01:36.997Z,100757.19
2024-05-09T12:06:41.472Z,100759.06
2024-05-09T12:11:44.801Z,100754.84
2024-05-09T12:16:48.088Z,100763.53
2024-05-09T12:21:51.777Z,100759.25
2024-05-09T12:26:56.175Z,100752.28
2024-05-09T12:31:59.625Z,100733.75
2024-05-09T12:37:03.561Z,100728.88
2024-05-09T12:42:09.771Z,100714.50
2024-05-09T12:47:15.302Z,100709.75
2024-05-09T12:52:18.969Z,100706.63
2024-05-09T12:57:23.726Z,100717.22
2024-05-09T13:02:27.428Z,100710.34
2024-05-09T13:07:32.590Z,100699.75
2024-05-09T13:12:36.794Z,100702.41
2024-05-09T13:17:40.327Z,100699.16
2024-05-09T13:22:45.576Z,100699.34
2024-05-09T13:27:49.419Z,100700.25
2024-05-09T13:32:54.885Z,100688.22
2024-05-09T13:38:00.136Z,100686.50
2024-05-09T13:43:06.130Z,100688.16
2024-05-09T13:48:11.188Z,100681.19
2024-05-09T13:53:15.629Z,100674.22
2024-05-09T13:58:19.440Z,100665.50
2024-05-09T14:03:23.586Z,100655.97
2024-05-09T14:08:28.251Z,100642.13
2024-05-09T14:13:31.350Z,100636.78
2024-05-09T14:18:35.535Z,100632.44
2024-05-09T14:23:39.394Z,100634.03
2024-05-09T14:28:42.877Z,100625.25
2024-05-09T14:33:46.848Z,100633.66
2024-05-09T14:38:50.894Z,100621.44
2024-05-09T14:43:54.915Z,100607.66
2024-05-09T14:49:00.572Z,100575.00
2024-05-09T14:54:05.026Z,100559.50
2024-05-09T14:59:08.945Z,100534.56
2024-05-09T15:04:14.068Z,100526.75
2024-05-09T15:09:17.857Z,100518.00
2024-05-09T15:14:20.926Z,100523.91
2024-05-09T15:19:24.206Z,100522.97
2024-05-09T15:24:28.418Z,100533.00
2024-05-09T15:29:32.485Z,100535.44
2024-05-09T15:34:35.541Z,100537.06
2024-05-09T15:39:39.897Z,100523.41
2024-05-09T15:44:42.928Z,100513.13
2024-05-09T15:49:48.042Z,100504.59
2024-05-09T15:54:51.058Z,100498.69
2024-05-09T15:59:54.583Z,100491.06
2024-05-09T16:04:58.836Z,100473.06
2024-05-09T16:10:02.490Z,100460.28
2024-05-09T16:15:07.110Z,100447.44
2024-05-09T16:20:15.151Z,100447.41
2024-05-09T16:25:21.967Z,100441.44
2024-05-09T16:30:31.732Z,100430.22
2024-05-09T16:35:40.023Z,100412.97
2024-05-09T16:40:42.974Z,100402.63
2024-05-09T16:45:46.006Z,100393.13
2024-05-09T16:50:50.532Z,100405.84
2024-05-09T16:55:54.529Z,100397.22
2024-05-09T17:00:58.601Z,100390.28
2024-05-09T17:06:04.596Z,100374.75
2024-05-09T17:11:07.646Z,100384.84
2024-05-09T17:16:11.238Z,100394.84
2024-05-09T17:21:15.703Z,100393.69
2024-05-09T17:26:18.742Z,100380.81
2024-05-09T17:31:21.924Z,100363.78
2024-05-09T17:36:25.875Z,100354.31
2024-05-09T17:41:28.793Z,100370.41
2024-05-09T17:46:31.704Z,100351.44
2024-05-09T17:51:36.348Z,100351.25
2024-05-09T17:56:39.334Z,100347.66
2024-05-09T18:01:42.511Z,100330.56
2024-05-09T18:06:47.443Z,100318.75
2024-05-09T18:11:51.115Z,100323.88
2024-05-09T18:16:54.311Z,100311.94
2024-05-09T18:21:57.598Z,100310.16
2024-05-09T18:27:00.628Z,100297.41
2024-05-09T18:32:04.158Z,100294.00
2024-05-09T18:37:07.493Z,100295.69
2024-05-09T18:42:10.533Z,100298.97
2024-05-09T18:47:15.977Z,100309.94
2024-05-09T18:52:21.850Z,100306.41
2024-05-09T18:57:25.675Z,100306.31
2024-05-09T19:02:29.388Z,100294.97
2024-05-09T19:07:33.295Z,100294.97
2024-05-09T19:12:36.476Z,100298.38
2024-05-09T19:17:39.450Z,100305.19
2024-05-09T19:22:42.449Z,100299.28
2024-05-09T19:27:46.313Z,100286.50
2024-05-09T19:32:49.350Z,100271.09
2024-05-09T19:37:53.600Z,100275.50
2024-05-09T19:42:56.761Z,100249.97
2024-05-09T19:47:59.816Z,100243.88
2024-05-09T19:53:03.322Z,100247.06
2024-05-09T19:58:07.902Z,100233.13
2024-05-09T20:03:12.739Z,100224.28
2024-05-09T20:08:16.912Z,100201.16
2024-05-09T20:13:20.118Z,100204.25
2024-05-09T20:18:23.361Z,100186.25
2024-05-09T20:23:26.831Z,100178.75
2024-05-09T20:28:30.482Z,100184.75
2024-05-09T20:33:33.715Z,100187.38
2024-05-09T20:38:37.633Z,100197.53
2024-05-09T20:43:40.585Z,100198.38
2024-05-09T20:48:43.784Z,100178.91
2024-05-09T20:53:47.619Z,100163.72
2024-05-09T20:58:50.694Z,100157.94
2024-05-09T21:03:53.670Z,100141.84
2024-05-09T21:08:58.839Z,100137.63
2024-05-09T21:14:01.669Z,100140.16
2024-05-09T21:19:05.316Z,100148.66
2024-05-09T21:24:09.206Z,100149.56
2024-05-09T21:29:12.522Z,100132.50
2024-05-09T21:34:15.726Z,100083.81
2024-05-09T21:39:18.857Z,100061.69
2024-05-09T21:44:22.498Z,100056.63
2024-05-09T21:49:26.056Z,100081.31
2024-05-09T21:54:30.815Z,100090.50
2024-05-09T21:59:34.341Z,100103.19
2024-05-09T22:04:37.601Z,100089.50
2024-05-09T22:09:45.729Z,100104.97
2024-05-09T22:14:48.736Z,100088.69
2024-05-09T22:19:51.954Z,100077.78
2024-05-09T22:24:55.910Z,100074.41
2024-05-09T22:29:58.925Z,100061.69
2024-05-09T22:35:02.294Z,100065.09
2024-05-09T22:40:14.862Z,100066.69
2024-05-09T22:45:20.646Z,100028.03
2024-05-09T22:50:27.056Z,100032.78
2024-05-09T22:55:35.413Z,100035.63
2024-05-09T23:00:38.575Z,100023.75
2024-05-09T23:05:42.172Z,100023.81
2024-05-09T23:10:45.193Z,100011.00
2024-05-09T23:15:49.070Z,100017.94
2024-05-09T23:20:53.074Z,99997.53
2024-05-09T23:25:56.107Z,99984.81
2024-05-09T23:30:59.598Z,99983.25
2024-05-09T23:36:03.180Z,99979.94
2024-05-09T23:41:07.103Z,99980.91
2024-05-09T23:46:11.308Z,99961.34
2024-05-09T23:51:15.804Z,99946.00
2024-05-09T23:56:21.520Z,99948.56
